CST,Max TemperatureF,Mean TemperatureF,Min TemperatureF,Max Dew PointF,MeanDew PointF,Min DewpointF,Max Humidity, Mean Humidity, Min Humidity, Max Sea Level PressureIn, Mean Sea Level PressureIn, Min Sea Level PressureIn, Max VisibilityMiles, Mean VisibilityMiles, Min VisibilityMiles, Max Wind SpeedMPH, Mean Wind SpeedMPH, Max Gust SpeedMPH,PrecipitationIn, CloudCover, Events, WindDirDegrees
2012-11-1,75,60,44,54,45,39,93,66,31,30.11,30.04,30.00,10,9,2,8,1,,0.00,0,,320
2012-11-2,80,64,48,63,58,45,100,78,51,30.09,30.04,30.01,10,8,0,9,3,,0.00,1,,234
2012-11-3,82,68,53,64,58,52,94,75,39,30.16,30.09,30.06,10,8,0,10,2,,0.00,1,,258
2012-11-4,68,62,53,61,57,50,94,85,68,30.16,30.10,30.06,10,9,1,8,3,,0.07,1,,329
2012-11-5,59,52,44,48,46,39,93,81,48,30.11,30.04,29.96,10,9,2,12,4,,0.53,4,Thunderstorm,34
2012-11-6,57,50,42,48,45,41,93,79,59,30.08,30.03,29.97,10,9,4,13,5,16,0.00,6,,323
2012-11-7,66,54,41,46,37,34,93,62,32,30.18,30.07,30.00,10,9,2,14,5,23,0.00,0,,313
2012-11-8,62,48,33,45,36,30,93,71,37,30.29,30.22,30.17,10,10,7,7,2,,0.00,0,,20
2012-11-9,69,52,35,48,42,32,93,70,38,30.31,30.24,30.20,10,8,1,9,2,,0.00,0,,152
2012-11-10,75,58,42,54,49,39,94,73,47,30.30,30.23,30.19,10,7,0,15,3,18,0.00,1,,140
2012-11-11,77,66,55,61,56,52,88,72,47,30.22,30.17,30.12,10,10,10,21,10,28,0.00,1,,139
2012-11-12,66,52,39,63,47,34,94,77,55,30.40,30.28,30.10,10,10,6,16,9,25,0.53,4,Thunderstorm,346
2012-11-13,57,45,33,36,29,25,81,58,31,30.45,30.37,30.30,10,10,5,20,9,24,0.00,0,,5
2012-11-14,62,50,37,36,32,28,76,57,30,30.35,30.29,30.25,10,10,10,12,7,,0.00,0,,348
2012-11-15,64,50,35,45,38,30,87,71,40,30.31,30.26,30.21,10,10,4,10,5,,0.00,0,,7
2012-11-16,66,52,37,39,35,28,93,63,24,30.33,30.29,30.25,10,10,7,13,5,17,0.00,0,,6
2012-11-17,64,50,37,41,36,30,87,62,37,30.40,30.33,30.30,10,10,10,13,6,17,0.00,0,,17
2012-11-18,64,50,35,41,36,30,93,68,37,30.38,30.32,30.28,10,10,10,12,5,,0.00,0,,30
2012-11-19,69,53,37,48,41,34,93,73,40,30.32,30.26,30.19,10,10,10,8,1,,0.00,0,,350
2012-11-20,71,56,42,46,43,37,93,72,29,30.24,30.19,30.14,10,9,1,9,1,,0.00,1,,333
2012-11-21,75,58,42,52,44,39,93,68,31,30.22,30.18,30.15,10,8,1,10,2,,0.00,0,,335
2012-11-22,73,56,39,52,44,36,93,74,36,30.27,30.21,30.18,10,8,0,6,1,,0.00,0,,246
2012-11-23,71,56,42,54,47,37,93,72,53,30.27,30.23,30.19,10,8,2,12,3,17,0.00,2,,302
2012-11-24,57,45,32,37,30,27,81,60,31,30.34,30.25,30.19,10,10,10,14,7,20,0.00,0,,345
2012-11-25,62,44,26,39,30,23,93,65,26,30.25,30.16,30.11,10,10,6,8,2,,0.00,0,,172
2012-11-26,68,54,39,61,50,36,94,88,73,30.18,30.12,30.09,10,6,0,13,2,18,0.16,4,,149
2012-11-27,60,52,44,59,51,41,94,88,82,30.33,30.20,30.07,10,6,1,16,6,18,0.82,5,Thunderstorm,360
2012-11-28,60,46,33,39,35,30,93,71,36,30.46,30.38,30.33,10,8,3,13,6,,0.07,2,,5
2012-11-29,62,46,30,43,36,27,93,73,42,30.41,30.33,30.27,10,10,6,9,2,,0.00,0,,106
2012-11-30,68,52,37,52,43,34,93,78,46,30.33,30.27,30.22,10,7,0,7,1,,0.00,1,,149